Date,TemperatureHighF,TemperatureAvgF,TemperatureLowF,DewpointHighF,DewpointAvgF,DewpointLowF,HumidityHigh,HumidityAvg,HumidityLow,PressureMaxIn,PressureMinIn,WindSpeedMaxMPH,WindSpeedAvgMPH,GustSpeedMaxMPH,PrecipitationSumIn
2012-11-24,36.3,29.6,26.6,21.2,20.3,19.4,77,68,53,29.91,29.80,4,2,5,0.00
2012-11-25,56.5,45.4,28.6,26.8,24.0,20.4,71,44,31,29.80,29.64,21,13,22,0.00
2012-12-8,50.7,46.9,19.4,47.7,44.0,17.2,95,90,84,29.71,29.66,11,6,19,0.05
2012-12-9,59.2,50.0,44.2,58.9,48.9,40.3,99,96,86,29.69,29.43,20,8,21,0.52
2012-12-10,44.2,32.1,30.2,40.6,26.1,21.5,87,78,68,29.74,29.51,23,10,23,0.00
2012-12-11,41.2,32.6,27.3,22.5,21.0,18.7,73,63,44,29.95,29.77,14,4,14,0.00
2012-12-12,51.4,36.6,26.1,29.1,24.6,20.8,89,63,36,30.08,29.96,8,3,8,0.00
2012-12-13,54.0,40.4,29.3,30.2,24.6,22.1,86,54,30,30.10,29.95,11,4,11,0.00
2012-12-14,56.3,45.0,34.0,32.2,26.9,22.0,64,50,34,29.99,29.80,16,5,16,0.00
2012-12-15,57.0,51.4,45.3,53.5,44.9,32.1,89,79,55,29.81,29.44,29,11,29,0.09
2012-12-17,39.0,38.8,38.7,36.3,36.3,36.3,91,90,90,29.50,29.49,12,11,12,0.00
2012-12-18,57.6,49.5,37.9,41.7,37.5,33.3,91,64,45,29.61,29.43,19,12,24,0.00
2012-12-19,55.4,45.4,33.6,44.6,37.0,30.5,90,73,63,29.76,29.42,19,7,19,0.00
2012-12-20,59.0,37.6,29.5,53.8,29.5,21.6,97,73,53,29.54,29.03,43,27,49,0.25
2012-12-21,39.0,31.6,26.2,21.5,17.0,14.8,71,55,38,29.98,29.54,34,17,37,0.01
2012-12-22,45.3,34.8,20.7,21.2,18.4,14.4,78,52,33,30.02,29.71,9,4,9,0.00
2012-12-23,64.6,49.1,34.0,34.1,30.8,20.7,73,51,29,29.71,29.57,14,6,15,0.00
2012-12-24,46.9,36.5,29.3,39.0,30.5,24.7,92,79,60,29.81,29.49,20,9,24,0.00
2012-12-25,36.0,33.3,27.3,28.3,26.4,23.4,88,76,65,29.91,29.57,33,16,33,0.00
2012-12-26,33.4,31.4,30.0,31.6,28.8,1.5,99,92,27,29.80,29.37,30,8,31,1.51
2012-12-28,31.6,29.9,28.4,31.2,25.6,-18.9,99,88,10,29.82,29.55,4,2,4,0.02
2012-12-29,32.2,24.7,19.0,30.9,19.2,-19.0,99,80,10,30.06,29.55,18,7,18,12.94
2012-12-30,34.3,27.5,15.6,25.0,21.8,13.7,98,80,58,30.19,30.00,12,5,12,0.00
2012-12-31,30.6,30.0,29.5,25.3,25.0,24.7,82,81,80,30.00,29.97,11,6,11,0.00
2013-1-1,44.1,24.8,17.8,43.8,20.0,12.1,99,82,76,29.95,29.77,6,0,6,0.01